sensor_id;sensor_type;location;lat;lon;timestamp;P1;durP1;ratioP1;P2;durP2;ratioP2
79348;SDS011;68817;48.110;11.660;2024-03-23T00:54:35;4.25;;;2.90;;
79348;SDS011;68817;48.110;11.660;2024-03-23T00:57:00;5.70;;;3.17;;
79348;SDS011;68817;48.110;11.660;2024-03-23T00:59:25;4.28;;;3.22;;
79348;SDS011;68817;48.110;11.660;2024-03-23T01:01:53;6.43;;;3.17;;
79348;SDS011;68817;48.110;11.660;2024-03-23T01:04:19;4.32;;;2.25;;
79348;SDS011;68817;48.110;11.660;2024-03-23T01:06:44;4.03;;;2.47;;
79348;SDS011;68817;48.110;11.660;2024-03-23T01:09:10;5.78;;;2.13;;
79348;SDS011;68817;48.110;11.660;2024-03-23T01:11:36;3.55;;;2.55;;
79348;SDS011;68817;48.110;11.660;2024-03-23T01:14:02;3.63;;;2.60;;
79348;SDS011;68817;48.110;11.660;2024-03-23T01:16:27;7.13;;;2.90;;
79348;SDS011;68817;48.110;11.660;2024-03-23T01:18:53;4.97;;;2.85;;
79348;SDS011;68817;48.110;11.660;2024-03-23T01:21:19;5.57;;;3.42;;
79348;SDS011;68817;48.110;11.660;2024-03-23T01:23:44;4.75;;;3.00;;
79348;SDS011;68817;48.110;11.660;2024-03-23T01:26:09;4.15;;;2.92;;
79348;SDS011;68817;48.110;11.660;2024-03-23T01:28:35;3.10;;;2.72;;
79348;SDS011;68817;48.110;11.660;2024-03-23T01:31:00;6.22;;;3.05;;
79348;SDS011;68817;48.110;11.660;2024-03-23T01:33:26;5.18;;;3.03;;
79348;SDS011;68817;48.110;11.660;2024-03-23T01:35:51;4.13;;;2.67;;
79348;SDS011;68817;48.110;11.660;2024-03-23T01:38:16;4.38;;;2.50;;
79348;SDS011;68817;48.110;11.660;2024-03-23T01:40:42;3.65;;;3.00;;
79348;SDS011;68817;48.110;11.660;2024-03-23T01:43:08;6.95;;;2.90;;
79348;SDS011;68817;48.110;11.660;2024-03-23T01:45:33;3.75;;;2.38;;
79348;SDS011;68817;48.110;11.660;2024-03-23T01:47:59;6.00;;;2.95;;
79348;SDS011;68817;48.110;11.660;2024-03-23T01:50:25;2.92;;;2.28;;
79348;SDS011;68817;48.110;11.660;2024-03-23T01:52:51;3.30;;;2.30;;
79348;SDS011;68817;48.110;11.660;2024-03-23T01:55:16;3.25;;;2.38;;
79348;SDS011;68817;48.110;11.660;2024-03-23T01:57:42;3.47;;;2.50;;
79348;SDS011;68817;48.110;11.660;2024-03-23T02:00:07;2.80;;;2.10;;
79348;SDS011;68817;48.110;11.660;2024-03-23T02:02:42;4.00;;;2.15;;
79348;SDS011;68817;48.110;11.660;2024-03-23T02:05:08;2.85;;;1.88;;
79348;SDS011;68817;48.110;11.660;2024-03-23T02:07:33;2.58;;;1.92;;
79348;SDS011;68817;48.110;11.660;2024-03-23T02:10:00;2.70;;;1.70;;
79348;SDS011;68817;48.110;11.660;2024-03-23T02:12:26;3.33;;;1.95;;
79348;SDS011;68817;48.110;11.660;2024-03-23T02:14:51;3.33;;;2.05;;
79348;SDS011;68817;48.110;11.660;2024-03-23T02:17:16;4.50;;;2.28;;
79348;SDS011;68817;48.110;11.660;2024-03-23T02:19:42;3.03;;;1.95;;
79348;SDS011;68817;48.110;11.660;2024-03-23T02:22:07;2.60;;;1.83;;
79348;SDS011;68817;48.110;11.660;2024-03-23T02:24:35;2.25;;;1.60;;
79348;SDS011;68817;48.110;11.660;2024-03-23T02:27:01;4.47;;;1.90;;
79348;SDS011;68817;48.110;11.660;2024-03-23T02:29:27;2.38;;;1.60;;
79348;SDS011;68817;48.110;11.660;2024-03-23T02:31:52;3.05;;;2.03;;
79348;SDS011;68817;48.110;11.660;2024-03-23T02:34:18;3.70;;;2.15;;
79348;SDS011;68817;48.110;11.660;2024-03-23T02:36:43;3.67;;;1.67;;
79348;SDS011;68817;48.110;11.660;2024-03-23T02:39:08;3.88;;;2.25;;
79348;SDS011;68817;48.110;11.660;2024-03-23T02:41:34;2.13;;;1.73;;
79348;SDS011;68817;48.110;11.660;2024-03-23T02:43:59;3.45;;;1.83;;
79348;SDS011;68817;48.110;11.660;2024-03-23T02:46:24;3.03;;;1.92;;
79348;SDS011;68817;48.110;11.660;2024-03-23T02:48:50;2.83;;;1.80;;
79348;SDS011;68817;48.110;11.660;2024-03-23T02:51:15;3.03;;;1.80;;
79348;SDS011;68817;48.110;11.660;2024-03-23T02:53:41;3.72;;;2.00;;
79348;SDS011;68817;48.110;11.660;2024-03-23T02:56:06;3.40;;;1.90;;
79348;SDS011;68817;48.110;11.660;2024-03-23T02:58:32;3.05;;;1.83;;
79348;SDS011;68817;48.110;11.660;2024-03-23T03:00:57;2.25;;;1.63;;
79348;SDS011;68817;48.110;11.660;2024-03-23T03:03:23;3.15;;;2.05;;
79348;SDS011;68817;48.110;11.660;2024-03-23T03:05:54;2.55;;;1.85;;
79348;SDS011;68817;48.110;11.660;2024-03-23T03:08:20;4.57;;;1.90;;
79348;SDS011;68817;48.110;11.660;2024-03-23T03:10:45;2.17;;;1.45;;
79348;SDS011;68817;48.110;11.660;2024-03-23T03:13:11;3.92;;;2.25;;
79348;SDS011;68817;48.110;11.660;2024-03-23T03:15:36;2.42;;;1.65;;
79348;SDS011;68817;48.110;11.660;2024-03-23T03:18:01;3.63;;;1.83;;
79348;SDS011;68817;48.110;11.660;2024-03-23T03:20:27;3.63;;;1.38;;
79348;SDS011;68817;48.110;11.660;2024-03-23T03:22:52;2.63;;;1.67;;
79348;SDS011;68817;48.110;11.660;2024-03-23T03:25:18;2.10;;;1.40;;
79348;SDS011;68817;48.110;11.660;2024-03-23T03:27:44;2.20;;;1.60;;
79348;SDS011;68817;48.110;11.660;2024-03-23T03:30:09;2.97;;;1.70;;
79348;SDS011;68817;48.110;11.660;2024-03-23T03:32:35;4.25;;;1.98;;
79348;SDS011;68817;48.110;11.660;2024-03-23T03:35:00;3.58;;;1.77;;
79348;SDS011;68817;48.110;11.660;2024-03-23T03:37:26;2.25;;;1.80;;
79348;SDS011;68817;48.110;11.660;2024-03-23T03:39:51;2.83;;;1.90;;
79348;SDS011;68817;48.110;11.660;2024-03-23T03:42:17;2.83;;;1.73;;
79348;SDS011;68817;48.110;11.660;2024-03-23T03:44:42;2.38;;;1.85;;
79348;SDS011;68817;48.110;11.660;2024-03-23T03:47:07;2.38;;;1.67;;
79348;SDS011;68817;48.110;11.660;2024-03-23T03:49:33;2.75;;;1.83;;
79348;SDS011;68817;48.110;11.660;2024-03-23T03:51:58;2.30;;;1.52;;
79348;SDS011;68817;48.110;11.660;2024-03-23T03:54:26;3.80;;;1.80;;
79348;SDS011;68817;48.110;11.660;2024-03-23T03:56:51;2.78;;;1.67;;
79348;SDS011;68817;48.110;11.660;2024-03-23T03:59:17;3.22;;;1.70;;
79348;SDS011;68817;48.110;11.660;2024-03-23T04:01:42;4.05;;;2.40;;
79348;SDS011;68817;48.110;11.660;2024-03-23T04:04:08;3.13;;;2.13;;
79348;SDS011;68817;48.110;11.660;2024-03-23T04:06:33;3.28;;;1.83;;
79348;SDS011;68817;48.110;11.660;2024-03-23T04:08:58;2.75;;;1.73;;
79348;SDS011;68817;48.110;11.660;2024-03-23T04:11:24;2.53;;;1.42;;
79348;SDS011;68817;48.110;11.660;2024-03-23T04:13:49;3.17;;;1.60;;
79348;SDS011;68817;48.110;11.660;2024-03-23T04:16:24;2.78;;;1.80;;
79348;SDS011;68817;48.110;11.660;2024-03-23T04:18:51;1.98;;;1.42;;
79348;SDS011;68817;48.110;11.660;2024-03-23T04:21:16;3.35;;;1.80;;
79348;SDS011;68817;48.110;11.660;2024-03-23T04:23:42;4.20;;;1.77;;
79348;SDS011;68817;48.110;11.660;2024-03-23T04:26:07;8.88;;;2.13;;
79348;SDS011;68817;48.110;11.660;2024-03-23T04:28:32;2.10;;;1.73;;
79348;SDS011;68817;48.110;11.660;2024-03-23T04:30:58;3.17;;;1.65;;
79348;SDS011;68817;48.110;11.660;2024-03-23T04:33:23;2.97;;;1.73;;
79348;SDS011;68817;48.110;11.660;2024-03-23T04:35:49;4.00;;;1.80;;
79348;SDS011;68817;48.110;11.660;2024-03-23T04:38:14;2.53;;;1.35;;
79348;SDS011;68817;48.110;11.660;2024-03-23T04:40:41;2.50;;;1.60;;
79348;SDS011;68817;48.110;11.660;2024-03-23T04:43:08;2.85;;;1.52;;
79348;SDS011;68817;48.110;11.660;2024-03-23T04:45:33;2.28;;;1.30;;
79348;SDS011;68817;48.110;11.660;2024-03-23T04:47:58;2.55;;;1.40;;
79348;SDS011;68817;48.110;11.660;2024-03-23T04:50:24;3.67;;;1.55;;
79348;SDS011;68817;48.110;11.660;2024-03-23T04:52:49;2.42;;;1.52;;
79348;SDS011;68817;48.110;11.660;2024-03-23T04:55:15;2.15;;;1.42;;
79348;SDS011;68817;48.110;11.660;2024-03-23T04:57:40;1.50;;;1.25;;
79348;SDS011;68817;48.110;11.660;2024-03-23T05:00:06;2.50;;;1.45;;
79348;SDS011;68817;48.110;11.660;2024-03-23T05:02:41;3.65;;;1.17;;
79348;SDS011;68817;48.110;11.660;2024-03-23T05:05:07;2.25;;;1.35;;
79348;SDS011;68817;48.110;11.660;2024-03-23T05:07:33;1.50;;;1.25;;
79348;SDS011;68817;48.110;11.660;2024-03-23T05:09:58;2.45;;;1.30;;
79348;SDS011;68817;48.110;11.660;2024-03-23T05:12:24;2.03;;;1.30;;
79348;SDS011;68817;48.110;11.660;2024-03-23T05:14:49;1.95;;;1.20;;
79348;SDS011;68817;48.110;11.660;2024-03-23T05:17:15;2.13;;;1.40;;
79348;SDS011;68817;48.110;11.660;2024-03-23T05:19:40;1.92;;;1.23;;
79348;SDS011;68817;48.110;11.660;2024-03-23T05:22:05;2.33;;;1.30;;
79348;SDS011;68817;48.110;11.660;2024-03-23T05:24:31;3.20;;;1.35;;
79348;SDS011;68817;48.110;11.660;2024-03-23T05:26:56;2.08;;;1.20;;
79348;SDS011;68817;48.110;11.660;2024-03-23T05:29:24;1.70;;;1.10;;
79348;SDS011;68817;48.110;11.660;2024-03-23T05:31:50;2.60;;;1.30;;
79348;SDS011;68817;48.110;11.660;2024-03-23T05:34:16;2.40;;;1.15;;
79348;SDS011;68817;48.110;11.660;2024-03-23T05:36:42;4.63;;;1.55;;
79348;SDS011;68817;48.110;11.660;2024-03-23T05:39:08;3.60;;;1.42;;
79348;SDS011;68817;48.110;11.660;2024-03-23T05:41:33;1.98;;;0.98;;
79348;SDS011;68817;48.110;11.660;2024-03-23T05:44:01;1.52;;;0.98;;
79348;SDS011;68817;48.110;11.660;2024-03-23T05:46:27;1.80;;;1.02;;
79348;SDS011;68817;48.110;11.660;2024-03-23T05:48:52;1.95;;;1.30;;
79348;SDS011;68817;48.110;11.660;2024-03-23T05:51:25;2.03;;;1.13;;
79348;SDS011;68817;48.110;11.660;2024-03-23T05:53:50;1.85;;;1.00;;
79348;SDS011;68817;48.110;11.660;2024-03-23T05:56:19;3.30;;;1.48;;
79348;SDS011;68817;48.110;11.660;2024-03-23T05:58:44;1.88;;;1.08;;
79348;SDS011;68817;48.110;11.660;2024-03-23T06:01:11;5.50;;;1.25;;
79348;SDS011;68817;48.110;11.660;2024-03-23T06:03:37;3.17;;;1.15;;
79348;SDS011;68817;48.110;11.660;2024-03-23T06:06:02;1.52;;;0.90;;
79348;SDS011;68817;48.110;11.660;2024-03-23T06:08:27;1.75;;;1.02;;
79348;SDS011;68817;48.110;11.660;2024-03-23T06:10:53;2.28;;;1.00;;
79348;SDS011;68817;48.110;11.660;2024-03-23T06:13:18;2.65;;;1.13;;
79348;SDS011;68817;48.110;11.660;2024-03-23T06:15:44;3.15;;;0.93;;
79348;SDS011;68817;48.110;11.660;2024-03-23T06:18:11;3.22;;;1.13;;
79348;SDS011;68817;48.110;11.660;2024-03-23T06:20:37;1.40;;;1.10;;
79348;SDS011;68817;48.110;11.660;2024-03-23T06:23:02;1.98;;;0.98;;
79348;SDS011;68817;48.110;11.660;2024-03-23T06:25:28;2.28;;;1.10;;
79348;SDS011;68817;48.110;11.660;2024-03-23T06:27:54;2.83;;;1.00;;
79348;SDS011;68817;48.110;11.660;2024-03-23T06:30:20;1.95;;;1.35;;
79348;SDS011;68817;48.110;11.660;2024-03-23T06:32:45;1.50;;;1.02;;
79348;SDS011;68817;48.110;11.660;2024-03-23T06:35:10;1.20;;;0.85;;
79348;SDS011;68817;48.110;11.660;2024-03-23T06:37:36;2.25;;;1.10;;
79348;SDS011;68817;48.110;11.660;2024-03-23T06:40:01;2.08;;;1.02;;
79348;SDS011;68817;48.110;11.660;2024-03-23T06:42:29;1.80;;;0.85;;
79348;SDS011;68817;48.110;11.660;2024-03-23T06:44:55;2.58;;;1.00;;
79348;SDS011;68817;48.110;11.660;2024-03-23T06:47:20;2.00;;;0.90;;
79348;SDS011;68817;48.110;11.660;2024-03-23T06:49:45;1.70;;;1.00;;
79348;SDS011;68817;48.110;11.660;2024-03-23T06:52:11;2.80;;;1.13;;
79348;SDS011;68817;48.110;11.660;2024-03-23T06:54:36;1.27;;;0.95;;
79348;SDS011;68817;48.110;11.660;2024-03-23T06:57:02;1.35;;;1.00;;
79348;SDS011;68817;48.110;11.660;2024-03-23T06:59:28;3.33;;;1.63;;
79348;SDS011;68817;48.110;11.660;2024-03-23T07:01:53;1.88;;;1.02;;
79348;SDS011;68817;48.110;11.660;2024-03-23T07:04:18;1.92;;;1.10;;
79348;SDS011;68817;48.110;11.660;2024-03-23T07:06:45;2.28;;;1.05;;
79348;SDS011;68817;48.110;11.660;2024-03-23T07:09:10;2.38;;;1.20;;
79348;SDS011;68817;48.110;11.660;2024-03-23T07:11:36;5.03;;;1.20;;
79348;SDS011;68817;48.110;11.660;2024-03-23T07:14:01;2.10;;;1.00;;
79348;SDS011;68817;48.110;11.660;2024-03-23T07:16:27;1.77;;;1.10;;
79348;SDS011;68817;48.110;11.660;2024-03-23T07:18:53;3.35;;;1.00;;
79348;SDS011;68817;48.110;11.660;2024-03-23T07:21:18;1.48;;;0.98;;
79348;SDS011;68817;48.110;11.660;2024-03-23T07:23:44;1.85;;;1.08;;
79348;SDS011;68817;48.110;11.660;2024-03-23T07:26:12;2.65;;;1.00;;
79348;SDS011;68817;48.110;11.660;2024-03-23T07:28:38;1.88;;;0.98;;
79348;SDS011;68817;48.110;11.660;2024-03-23T07:31:08;1.40;;;0.90;;
79348;SDS011;68817;48.110;11.660;2024-03-23T07:33:34;1.90;;;0.93;;
79348;SDS011;68817;48.110;11.660;2024-03-23T07:36:00;1.50;;;1.30;;
79348;SDS011;68817;48.110;11.660;2024-03-23T07:38:27;1.27;;;0.90;;
79348;SDS011;68817;48.110;11.660;2024-03-23T07:41:02;3.45;;;1.10;;
79348;SDS011;68817;48.110;11.660;2024-03-23T07:43:28;1.98;;;1.20;;
79348;SDS011;68817;48.110;11.660;2024-03-23T07:45:53;3.22;;;1.27;;
79348;SDS011;68817;48.110;11.660;2024-03-23T07:48:22;3.00;;;1.50;;
79348;SDS011;68817;48.110;11.660;2024-03-23T07:53:23;3.90;;;1.50;;
79348;SDS011;68817;48.110;11.660;2024-03-23T07:55:58;1.88;;;1.05;;
79348;SDS011;68817;48.110;11.660;2024-03-23T07:58:24;2.25;;;1.38;;
79348;SDS011;68817;48.110;11.660;2024-03-23T08:00:50;2.33;;;1.25;;
79348;SDS011;68817;48.110;11.660;2024-03-23T08:03:15;2.45;;;1.50;;
79348;SDS011;68817;48.110;11.660;2024-03-23T08:05:41;3.45;;;1.40;;
79348;SDS011;68817;48.110;11.660;2024-03-23T08:08:06;2.45;;;1.30;;
79348;SDS011;68817;48.110;11.660;2024-03-23T08:10:32;1.80;;;1.33;;
79348;SDS011;68817;48.110;11.660;2024-03-23T08:12:57;2.50;;;1.20;;
79348;SDS011;68817;48.110;11.660;2024-03-23T08:15:23;2.95;;;1.52;;
79348;SDS011;68817;48.110;11.660;2024-03-23T08:17:49;2.05;;;1.27;;
79348;SDS011;68817;48.110;11.660;2024-03-23T08:20:14;3.72;;;1.42;;
79348;SDS011;68817;48.110;11.660;2024-03-23T08:22:39;1.77;;;1.27;;
79348;SDS011;68817;48.110;11.660;2024-03-23T08:25:05;2.10;;;1.30;;
79348;SDS011;68817;48.110;11.660;2024-03-23T08:27:31;3.03;;;1.48;;
79348;SDS011;68817;48.110;11.660;2024-03-23T08:29:58;2.55;;;1.80;;
79348;SDS011;68817;48.110;11.660;2024-03-23T08:32:23;3.35;;;1.85;;
79348;SDS011;68817;48.110;11.660;2024-03-23T08:34:48;4.32;;;1.67;;
79348;SDS011;68817;48.110;11.660;2024-03-23T08:37:14;4.18;;;1.70;;
79348;SDS011;68817;48.110;11.660;2024-03-23T08:39:39;4.07;;;1.70;;
79348;SDS011;68817;48.110;11.660;2024-03-23T08:42:05;3.28;;;1.48;;
79348;SDS011;68817;48.110;11.660;2024-03-23T08:44:30;3.75;;;1.90;;
79348;SDS011;68817;48.110;11.660;2024-03-23T08:46:56;3.53;;;1.52;;
79348;SDS011;68817;48.110;11.660;2024-03-23T08:49:21;3.67;;;1.92;;
79348;SDS011;68817;48.110;11.660;2024-03-23T08:51:47;2.83;;;1.70;;
79348;SDS011;68817;48.110;11.660;2024-03-23T08:54:12;4.20;;;1.50;;
79348;SDS011;68817;48.110;11.660;2024-03-23T08:56:37;3.58;;;1.55;;
79348;SDS011;68817;48.110;11.660;2024-03-23T08:59:03;3.60;;;1.50;;
79348;SDS011;68817;48.110;11.660;2024-03-23T09:01:28;4.20;;;1.58;;
79348;SDS011;68817;48.110;11.660;2024-03-23T09:03:53;3.17;;;1.60;;
79348;SDS011;68817;48.110;11.660;2024-03-23T09:06:19;4.28;;;2.00;;
79348;SDS011;68817;48.110;11.660;2024-03-23T09:08:44;2.47;;;1.73;;
79348;SDS011;68817;48.110;11.660;2024-03-23T09:11:11;3.25;;;1.63;;
79348;SDS011;68817;48.110;11.660;2024-03-23T09:13:37;3.83;;;1.73;;
79348;SDS011;68817;48.110;11.660;2024-03-23T09:16:04;3.30;;;1.70;;
79348;SDS011;68817;48.110;11.660;2024-03-23T09:18:31;3.67;;;2.00;;
79348;SDS011;68817;48.110;11.660;2024-03-23T09:20:57;4.22;;;2.13;;
79348;SDS011;68817;48.110;11.660;2024-03-23T09:23:22;6.82;;;2.20;;
79348;SDS011;68817;48.110;11.660;2024-03-23T09:25:48;4.93;;;2.08;;
79348;SDS011;68817;48.110;11.660;2024-03-23T09:28:13;4.35;;;1.85;;
79348;SDS011;68817;48.110;11.660;2024-03-23T09:30:39;3.33;;;2.22;;
79348;SDS011;68817;48.110;11.660;2024-03-23T09:33:07;3.70;;;2.40;;
79348;SDS011;68817;48.110;11.660;2024-03-23T09:35:37;3.15;;;2.10;;
79348;SDS011;68817;48.110;11.660;2024-03-23T09:38:05;3.15;;;2.03;;
79348;SDS011;68817;48.110;11.660;2024-03-23T09:40:32;2.75;;;1.63;;
79348;SDS011;68817;48.110;11.660;2024-03-23T09:42:58;2.55;;;1.80;;
79348;SDS011;68817;48.110;11.660;2024-03-23T09:45:26;2.78;;;1.70;;
79348;SDS011;68817;48.110;11.660;2024-03-23T09:47:53;2.67;;;2.00;;
79348;SDS011;68817;48.110;11.660;2024-03-23T09:50:20;1.67;;;1.10;;
79348;SDS011;68817;48.110;11.660;2024-03-23T09:52:45;2.80;;;1.20;;
79348;SDS011;68817;48.110;11.660;2024-03-23T09:55:11;2.25;;;0.80;;
79348;SDS011;68817;48.110;11.660;2024-03-23T09:57:37;3.67;;;0.88;;
79348;SDS011;68817;48.110;11.660;2024-03-23T10:00:02;1.70;;;0.90;;
79348;SDS011;68817;48.110;11.660;2024-03-23T10:02:32;1.98;;;0.70;;
79348;SDS011;68817;48.110;11.660;2024-03-23T10:04:57;1.90;;;0.80;;
79348;SDS011;68817;48.110;11.660;2024-03-23T10:07:23;2.50;;;0.80;;
79348;SDS011;68817;48.110;11.660;2024-03-23T10:09:48;1.58;;;0.90;;
79348;SDS011;68817;48.110;11.660;2024-03-23T10:12:16;1.15;;;0.73;;
79348;SDS011;68817;48.110;11.660;2024-03-23T10:14:43;1.08;;;0.70;;
79348;SDS011;68817;48.110;11.660;2024-03-23T10:17:12;1.67;;;0.60;;
79348;SDS011;68817;48.110;11.660;2024-03-23T10:19:40;2.00;;;1.15;;
79348;SDS011;68817;48.110;11.660;2024-03-23T10:22:07;1.77;;;0.90;;
79348;SDS011;68817;48.110;11.660;2024-03-23T10:24:33;1.95;;;1.05;;
79348;SDS011;68817;48.110;11.660;2024-03-23T10:26:59;2.47;;;1.00;;
79348;SDS011;68817;48.110;11.660;2024-03-23T10:29:25;1.77;;;0.80;;
79348;SDS011;68817;48.110;11.660;2024-03-23T10:31:52;2.28;;;0.90;;
79348;SDS011;68817;48.110;11.660;2024-03-23T10:34:24;1.05;;;0.73;;
79348;SDS011;68817;48.110;11.660;2024-03-23T10:36:50;1.48;;;0.70;;
79348;SDS011;68817;48.110;11.660;2024-03-23T10:39:18;1.05;;;0.90;;
79348;SDS011;68817;48.110;11.660;2024-03-23T10:41:46;4.25;;;1.02;;
79348;SDS011;68817;48.110;11.660;2024-03-23T10:44:14;1.02;;;0.70;;
79348;SDS011;68817;48.110;11.660;2024-03-23T10:46:42;3.05;;;0.60;;
79348;SDS011;68817;48.110;11.660;2024-03-23T10:49:07;1.60;;;0.90;;
79348;SDS011;68817;48.110;11.660;2024-03-23T10:51:33;1.20;;;0.70;;
79348;SDS011;68817;48.110;11.660;2024-03-23T10:53:58;1.63;;;0.82;;
79348;SDS011;68817;48.110;11.660;2024-03-23T10:56:25;1.42;;;0.60;;
79348;SDS011;68817;48.110;11.660;2024-03-23T10:58:51;1.23;;;0.25;;
79348;SDS011;68817;48.110;11.660;2024-03-23T11:01:17;1.25;;;0.60;;
79348;SDS011;68817;48.110;11.660;2024-03-23T11:03:46;1.38;;;0.50;;
79348;SDS011;68817;48.110;11.660;2024-03-23T11:06:34;0.68;;;0.32;;
79348;SDS011;68817;48.110;11.660;2024-03-23T11:09:03;1.30;;;0.60;;
79348;SDS011;68817;48.110;11.660;2024-03-23T11:11:28;1.25;;;0.50;;
79348;SDS011;68817;48.110;11.660;2024-03-23T11:13:57;1.38;;;0.50;;
79348;SDS011;68817;48.110;11.660;2024-03-23T11:16:28;0.82;;;0.60;;
79348;SDS011;68817;48.110;11.660;2024-03-23T11:22:03;0.93;;;0.40;;
79348;SDS011;68817;48.110;11.660;2024-03-23T11:24:30;1.15;;;0.50;;
79348;SDS011;68817;48.110;11.660;2024-03-23T11:26:55;2.45;;;0.93;;
79348;SDS011;68817;48.110;11.660;2024-03-23T11:29:21;0.88;;;0.50;;
79348;SDS011;68817;48.110;11.660;2024-03-23T11:31:51;0.95;;;0.50;;
79348;SDS011;68817;48.110;11.660;2024-03-23T11:34:18;0.80;;;0.60;;
79348;SDS011;68817;48.110;11.660;2024-03-23T11:36:44;2.35;;;0.73;;
79348;SDS011;68817;48.110;11.660;2024-03-23T11:39:14;1.00;;;0.70;;
79348;SDS011;68817;48.110;11.660;2024-03-23T11:41:45;1.45;;;0.63;;
79348;SDS011;68817;48.110;11.660;2024-03-23T11:44:30;1.33;;;0.60;;
79348;SDS011;68817;48.110;11.660;2024-03-23T11:46:55;1.02;;;0.70;;
79348;SDS011;68817;48.110;11.660;2024-03-23T11:49:32;2.53;;;0.82;;
79348;SDS011;68817;48.110;11.660;2024-03-23T11:51:58;1.63;;;0.65;;
79348;SDS011;68817;48.110;11.660;2024-03-23T11:54:23;2.28;;;1.08;;
79348;SDS011;68817;48.110;11.660;2024-03-23T11:56:59;1.33;;;0.73;;
79348;SDS011;68817;48.110;11.660;2024-03-23T11:59:39;1.58;;;0.73;;
79348;SDS011;68817;48.110;11.660;2024-03-23T12:02:09;1.92;;;0.80;;
79348;SDS011;68817;48.110;11.660;2024-03-23T12:04:36;1.45;;;0.80;;
79348;SDS011;68817;48.110;11.660;2024-03-23T12:07:15;3.05;;;0.70;;
79348;SDS011;68817;48.110;11.660;2024-03-23T12:09:44;1.80;;;1.00;;
79348;SDS011;68817;48.110;11.660;2024-03-23T12:12:13;1.35;;;0.90;;
79348;SDS011;68817;48.110;11.660;2024-03-23T12:14:42;1.52;;;1.00;;
79348;SDS011;68817;48.110;11.660;2024-03-23T12:17:09;1.55;;;0.90;;
79348;SDS011;68817;48.110;11.660;2024-03-23T12:19:35;1.33;;;0.90;;
79348;SDS011;68817;48.110;11.660;2024-03-23T12:22:00;1.60;;;0.93;;
79348;SDS011;68817;48.110;11.660;2024-03-23T12:24:28;0.93;;;0.73;;
79348;SDS011;68817;48.110;11.660;2024-03-23T12:26:54;2.33;;;1.00;;
79348;SDS011;68817;48.110;11.660;2024-03-23T12:29:20;2.28;;;1.20;;
79348;SDS011;68817;48.110;11.660;2024-03-23T12:31:45;1.90;;;1.30;;
79348;SDS011;68817;48.110;11.660;2024-03-23T12:34:10;1.38;;;1.10;;
79348;SDS011;68817;48.110;11.660;2024-03-23T12:36:36;2.92;;;1.58;;
79348;SDS011;68817;48.110;11.660;2024-03-23T12:39:02;2.13;;;1.27;;
79348;SDS011;68817;48.110;11.660;2024-03-23T12:41:27;1.52;;;1.00;;
79348;SDS011;68817;48.110;11.660;2024-03-23T12:43:53;2.58;;;1.70;;
79348;SDS011;68817;48.110;11.660;2024-03-23T12:46:18;2.72;;;1.45;;
79348;SDS011;68817;48.110;11.660;2024-03-23T12:48:46;3.15;;;1.52;;
79348;SDS011;68817;48.110;11.660;2024-03-23T12:51:12;2.10;;;1.50;;
79348;SDS011;68817;48.110;11.660;2024-03-23T12:53:37;2.70;;;1.40;;
79348;SDS011;68817;48.110;11.660;2024-03-23T12:56:03;2.75;;;1.20;;
79348;SDS011;68817;48.110;11.660;2024-03-23T12:58:28;2.10;;;1.30;;
79348;SDS011;68817;48.110;11.660;2024-03-23T13:00:53;3.15;;;1.50;;
79348;SDS011;68817;48.110;11.660;2024-03-23T13:03:19;3.60;;;1.65;;
79348;SDS011;68817;48.110;11.660;2024-03-23T13:05:51;3.50;;;1.55;;
79348;SDS011;68817;48.110;11.660;2024-03-23T13:08:17;4.85;;;1.70;;
79348;SDS011;68817;48.110;11.660;2024-03-23T13:10:42;4.18;;;1.50;;
79348;SDS011;68817;48.110;11.660;2024-03-23T13:13:08;5.10;;;1.73;;
79348;SDS011;68817;48.110;11.660;2024-03-23T13:15:33;3.20;;;1.40;;
79348;SDS011;68817;48.110;11.660;2024-03-23T13:17:58;3.13;;;1.50;;
79348;SDS011;68817;48.110;11.660;2024-03-23T13:20:24;2.45;;;1.20;;
79348;SDS011;68817;48.110;11.660;2024-03-23T13:22:49;2.70;;;1.30;;
79348;SDS011;68817;48.110;11.660;2024-03-23T13:25:17;3.95;;;1.42;;
79348;SDS011;68817;48.110;11.660;2024-03-23T13:27:43;3.45;;;1.48;;
79348;SDS011;68817;48.110;11.660;2024-03-23T13:30:09;1.85;;;1.23;;
79348;SDS011;68817;48.110;11.660;2024-03-23T13:32:35;2.92;;;1.40;;
79348;SDS011;68817;48.110;11.660;2024-03-23T13:35:00;4.63;;;1.33;;
79348;SDS011;68817;48.110;11.660;2024-03-23T13:37:26;3.17;;;1.42;;
79348;SDS011;68817;48.110;11.660;2024-03-23T13:39:51;3.80;;;1.25;;
79348;SDS011;68817;48.110;11.660;2024-03-23T13:42:17;3.30;;;1.35;;
79348;SDS011;68817;48.110;11.660;2024-03-23T13:44:42;6.32;;;1.55;;
79348;SDS011;68817;48.110;11.660;2024-03-23T13:47:08;2.33;;;1.30;;
79348;SDS011;68817;48.110;11.660;2024-03-23T13:49:33;3.65;;;1.45;;
79348;SDS011;68817;48.110;11.660;2024-03-23T13:51:59;3.03;;;1.73;;
79348;SDS011;68817;48.110;11.660;2024-03-23T13:54:24;3.42;;;1.30;;
79348;SDS011;68817;48.110;11.660;2024-03-23T13:56:50;2.33;;;1.17;;
79348;SDS011;68817;48.110;11.660;2024-03-23T13:59:16;4.93;;;1.95;;
79348;SDS011;68817;48.110;11.660;2024-03-23T14:01:42;2.35;;;1.20;;
79348;SDS011;68817;48.110;11.660;2024-03-23T14:04:07;4.78;;;1.45;;
79348;SDS011;68817;48.110;11.660;2024-03-23T14:06:33;3.00;;;1.48;;
79348;SDS011;68817;48.110;11.660;2024-03-23T14:08:58;4.45;;;1.90;;
79348;SDS011;68817;48.110;11.660;2024-03-23T14:11:24;3.22;;;2.20;;
79348;SDS011;68817;48.110;11.660;2024-03-23T14:13:51;4.72;;;1.83;;
79348;SDS011;68817;48.110;11.660;2024-03-23T14:16:18;5.03;;;1.95;;
79348;SDS011;68817;48.110;11.660;2024-03-23T14:18:45;4.38;;;2.00;;
79348;SDS011;68817;48.110;11.660;2024-03-23T14:21:11;5.65;;;2.13;;
79348;SDS011;68817;48.110;11.660;2024-03-23T14:23:36;4.95;;;2.05;;
79348;SDS011;68817;48.110;11.660;2024-03-23T14:26:02;3.85;;;1.90;;
79348;SDS011;68817;48.110;11.660;2024-03-23T14:28:27;5.93;;;2.13;;
79348;SDS011;68817;48.110;11.660;2024-03-23T14:30:55;4.78;;;2.13;;
79348;SDS011;68817;48.110;11.660;2024-03-23T14:33:21;3.35;;;1.95;;
79348;SDS011;68817;48.110;11.660;2024-03-23T14:35:55;3.47;;;1.83;;
79348;SDS011;68817;48.110;11.660;2024-03-23T14:38:22;4.72;;;2.55;;
79348;SDS011;68817;48.110;11.660;2024-03-23T14:40:47;3.78;;;2.20;;
79348;SDS011;68817;48.110;11.660;2024-03-23T14:43:13;4.32;;;2.42;;
79348;SDS011;68817;48.110;11.660;2024-03-23T14:48:33;5.53;;;2.15;;
79348;SDS011;68817;48.110;11.660;2024-03-23T14:50:59;6.28;;;2.30;;
79348;SDS011;68817;48.110;11.660;2024-03-23T14:53:25;3.28;;;2.15;;
79348;SDS011;68817;48.110;11.660;2024-03-23T14:55:51;4.43;;;2.53;;
79348;SDS011;68817;48.110;11.660;2024-03-23T14:58:16;3.90;;;2.30;;
79348;SDS011;68817;48.110;11.660;2024-03-23T15:00:41;3.88;;;2.45;;
79348;SDS011;68817;48.110;11.660;2024-03-23T15:03:07;5.15;;;2.30;;
79348;SDS011;68817;48.110;11.660;2024-03-23T15:05:32;4.68;;;2.03;;
79348;SDS011;68817;48.110;11.660;2024-03-23T15:07:58;4.25;;;1.80;;
79348;SDS011;68817;48.110;11.660;2024-03-23T15:10:23;3.33;;;1.58;;
79348;SDS011;68817;48.110;11.660;2024-03-23T15:12:48;3.53;;;1.60;;
79348;SDS011;68817;48.110;11.660;2024-03-23T15:15:14;3.78;;;1.58;;
79348;SDS011;68817;48.110;11.660;2024-03-23T15:17:40;3.67;;;1.35;;
79348;SDS011;68817;48.110;11.660;2024-03-23T15:20:09;2.88;;;1.33;;
79348;SDS011;68817;48.110;11.660;2024-03-23T15:22:36;5.45;;;1.48;;
79348;SDS011;68817;48.110;11.660;2024-03-23T15:25:02;3.70;;;1.17;;
79348;SDS011;68817;48.110;11.660;2024-03-23T15:27:27;6.22;;;1.58;;
79348;SDS011;68817;48.110;11.660;2024-03-23T15:29:53;2.88;;;1.40;;